sensor_id;sensor_type;location;lat;lon;timestamp;temperature;humidity
57088;DHT22;42965;52.846;6.614;2023-04-24T00:00:31;9.90;99.90
57088;DHT22;42965;52.846;6.614;2023-04-24T00:02:58;9.90;99.90
57088;DHT22;42965;52.846;6.614;2023-04-24T00:05:25;9.80;99.90
57088;DHT22;42965;52.846;6.614;2023-04-24T00:07:51;9.80;99.90
57088;DHT22;42965;52.846;6.614;2023-04-24T00:10:21;9.80;99.90
57088;DHT22;42965;52.846;6.614;2023-04-24T00:12:47;9.80;99.90
57088;DHT22;42965;52.846;6.614;2023-04-24T00:15:13;9.80;99.90
57088;DHT22;42965;52.846;6.614;2023-04-24T00:17:40;9.80;99.90
57088;DHT22;42965;52.846;6.614;2023-04-24T00:20:06;9.80;99.90
57088;DHT22;42965;52.846;6.614;2023-04-24T00:22:33;9.80;99.90
57088;DHT22;42965;52.846;6.614;2023-04-24T00:24:59;9.80;99.90
57088;DHT22;42965;52.846;6.614;2023-04-24T00:27:25;9.80;99.90
57088;DHT22;42965;52.846;6.614;2023-04-24T00:29:52;9.80;99.90
57088;DHT22;42965;52.846;6.614;2023-04-24T00:32:18;9.80;99.90
57088;DHT22;42965;52.846;6.614;2023-04-24T00:34:45;9.80;99.90
57088;DHT22;42965;52.846;6.614;2023-04-24T00:37:11;9.80;99.90
57088;DHT22;42965;52.846;6.614;2023-04-24T00:39:37;9.80;99.90
57088;DHT22;42965;52.846;6.614;2023-04-24T00:42:03;9.80;99.90
57088;DHT22;42965;52.846;6.614;2023-04-24T00:44:33;9.80;99.90
57088;DHT22;42965;52.846;6.614;2023-04-24T00:47:01;9.90;99.90
57088;DHT22;42965;52.846;6.614;2023-04-24T00:49:27;9.80;99.90
57088;DHT22;42965;52.846;6.614;2023-04-24T00:51:53;9.80;99.90
57088;DHT22;42965;52.846;6.614;2023-04-24T00:54:20;9.90;99.90
57088;DHT22;42965;52.846;6.614;2023-04-24T00:56:46;9.90;99.90
57088;DHT22;42965;52.846;6.614;2023-04-24T00:59:13;9.90;99.90
57088;DHT22;42965;52.846;6.614;2023-04-24T01:01:40;9.90;99.90
57088;DHT22;42965;52.846;6.614;2023-04-24T01:04:09;9.90;99.90
57088;DHT22;42965;52.846;6.614;2023-04-24T01:06:39;10.00;99.90
57088;DHT22;42965;52.846;6.614;2023-04-24T01:09:06;9.90;99.90
57088;DHT22;42965;52.846;6.614;2023-04-24T01:11:34;9.90;99.90
57088;DHT22;42965;52.846;6.614;2023-04-24T01:14:01;9.90;99.90
57088;DHT22;42965;52.846;6.614;2023-04-24T01:16:27;9.90;99.90
57088;DHT22;42965;52.846;6.614;2023-04-24T01:18:54;9.90;99.90
57088;DHT22;42965;52.846;6.614;2023-04-24T01:21:21;9.90;99.90
57088;DHT22;42965;52.846;6.614;2023-04-24T01:23:47;9.90;99.90
57088;DHT22;42965;52.846;6.614;2023-04-24T01:26:15;9.90;99.90
57088;DHT22;42965;52.846;6.614;2023-04-24T01:28:42;10.00;99.90
57088;DHT22;42965;52.846;6.614;2023-04-24T01:31:08;10.00;99.90
57088;DHT22;42965;52.846;6.614;2023-04-24T01:33:34;10.00;99.90
57088;DHT22;42965;52.846;6.614;2023-04-24T01:36:01;10.00;99.90
57088;DHT22;42965;52.846;6.614;2023-04-24T01:38:27;9.90;99.90
57088;DHT22;42965;52.846;6.614;2023-04-24T01:40:53;9.90;99.90
57088;DHT22;42965;52.846;6.614;2023-04-24T01:43:20;9.80;99.90
57088;DHT22;42965;52.846;6.614;2023-04-24T01:45:47;9.80;99.90
57088;DHT22;42965;52.846;6.614;2023-04-24T01:48:13;9.70;99.90
57088;DHT22;42965;52.846;6.614;2023-04-24T01:50:39;9.70;99.90
57088;DHT22;42965;52.846;6.614;2023-04-24T01:53:05;9.60;99.90
57088;DHT22;42965;52.846;6.614;2023-04-24T01:55:32;9.60;99.90
57088;DHT22;42965;52.846;6.614;2023-04-24T01:57:59;9.60;99.90
57088;DHT22;42965;52.846;6.614;2023-04-24T02:00:26;9.50;99.90
57088;DHT22;42965;52.846;6.614;2023-04-24T02:02:53;9.50;99.90
57088;DHT22;42965;52.846;6.614;2023-04-24T02:05:19;9.50;99.90
57088;DHT22;42965;52.846;6.614;2023-04-24T02:07:46;9.50;99.90
57088;DHT22;42965;52.846;6.614;2023-04-24T02:10:13;9.50;99.90
57088;DHT22;42965;52.846;6.614;2023-04-24T02:12:42;9.50;99.90
57088;DHT22;42965;52.846;6.614;2023-04-24T02:15:08;9.50;99.90
57088;DHT22;42965;52.846;6.614;2023-04-24T02:17:37;9.40;99.90
57088;DHT22;42965;52.846;6.614;2023-04-24T02:20:05;9.40;99.90
57088;DHT22;42965;52.846;6.614;2023-04-24T02:22:32;9.40;99.90
57088;DHT22;42965;52.846;6.614;2023-04-24T02:25:02;9.40;99.90
57088;DHT22;42965;52.846;6.614;2023-04-24T02:27:29;9.40;99.90
57088;DHT22;42965;52.846;6.614;2023-04-24T02:29:56;9.40;99.90
57088;DHT22;42965;52.846;6.614;2023-04-24T02:32:23;9.40;99.90
57088;DHT22;42965;52.846;6.614;2023-04-24T02:34:49;9.40;99.90
57088;DHT22;42965;52.846;6.614;2023-04-24T02:37:18;9.40;99.90
57088;DHT22;42965;52.846;6.614;2023-04-24T02:39:44;9.40;99.90
57088;DHT22;42965;52.846;6.614;2023-04-24T02:42:10;9.40;99.90
57088;DHT22;42965;52.846;6.614;2023-04-24T02:44:37;9.40;99.90
57088;DHT22;42965;52.846;6.614;2023-04-24T02:47:03;9.40;99.90
57088;DHT22;42965;52.846;6.614;2023-04-24T02:49:30;9.40;99.90
57088;DHT22;42965;52.846;6.614;2023-04-24T02:51:56;9.40;99.90
57088;DHT22;42965;52.846;6.614;2023-04-24T02:54:22;9.40;99.90
57088;DHT22;42965;52.846;6.614;2023-04-24T02:56:48;9.40;99.90
57088;DHT22;42965;52.846;6.614;2023-04-24T02:59:15;9.40;99.90
57088;DHT22;42965;52.846;6.614;2023-04-24T03:01:42;9.40;99.90
57088;DHT22;42965;52.846;6.614;2023-04-24T03:04:08;9.40;99.90
57088;DHT22;42965;52.846;6.614;2023-04-24T03:06:34;9.30;99.90
57088;DHT22;42965;52.846;6.614;2023-04-24T03:09:02;9.30;99.90
57088;DHT22;42965;52.846;6.614;2023-04-24T03:11:29;9.40;99.90
57088;DHT22;42965;52.846;6.614;2023-04-24T03:13:55;9.30;99.90
57088;DHT22;42965;52.846;6.614;2023-04-24T03:16:21;9.30;99.90
57088;DHT22;42965;52.846;6.614;2023-04-24T03:18:48;9.30;99.90
57088;DHT22;42965;52.846;6.614;2023-04-24T03:21:14;9.30;99.90
57088;DHT22;42965;52.846;6.614;2023-04-24T03:23:42;9.30;99.90
57088;DHT22;42965;52.846;6.614;2023-04-24T03:26:09;9.30;99.90
57088;DHT22;42965;52.846;6.614;2023-04-24T03:28:40;9.30;99.90
57088;DHT22;42965;52.846;6.614;2023-04-24T03:31:07;9.30;99.90
57088;DHT22;42965;52.846;6.614;2023-04-24T03:33:35;9.30;99.90
57088;DHT22;42965;52.846;6.614;2023-04-24T03:36:02;9.30;99.90
57088;DHT22;42965;52.846;6.614;2023-04-24T03:38:36;9.30;99.90
57088;DHT22;42965;52.846;6.614;2023-04-24T03:41:22;9.30;99.90
57088;DHT22;42965;52.846;6.614;2023-04-24T03:43:53;9.30;99.90
57088;DHT22;42965;52.846;6.614;2023-04-24T03:46:19;9.20;99.90
57088;DHT22;42965;52.846;6.614;2023-04-24T03:48:58;9.20;99.90
57088;DHT22;42965;52.846;6.614;2023-04-24T03:51:28;9.30;99.90
57088;DHT22;42965;52.846;6.614;2023-04-24T03:54:05;9.30;99.90
57088;DHT22;42965;52.846;6.614;2023-04-24T03:56:34;9.20;99.90
57088;DHT22;42965;52.846;6.614;2023-04-24T03:59:01;9.20;99.90
57088;DHT22;42965;52.846;6.614;2023-04-24T04:01:29;9.20;99.90
57088;DHT22;42965;52.846;6.614;2023-04-24T04:04:06;9.30;99.90
57088;DHT22;42965;52.846;6.614;2023-04-24T04:06:32;9.20;99.90
57088;DHT22;42965;52.846;6.614;2023-04-24T04:09:00;9.20;99.90
57088;DHT22;42965;52.846;6.614;2023-04-24T04:11:27;9.20;99.90
57088;DHT22;42965;52.846;6.614;2023-04-24T04:13:53;9.30;99.90
57088;DHT22;42965;52.846;6.614;2023-04-24T04:16:21;9.20;99.90
57088;DHT22;42965;52.846;6.614;2023-04-24T04:18:50;9.20;99.90
57088;DHT22;42965;52.846;6.614;2023-04-24T04:21:17;9.30;99.90
57088;DHT22;42965;52.846;6.614;2023-04-24T04:23:43;9.20;99.90
57088;DHT22;42965;52.846;6.614;2023-04-24T04:26:24;9.20;99.90
57088;DHT22;42965;52.846;6.614;2023-04-24T04:28:59;9.20;99.90
57088;DHT22;42965;52.846;6.614;2023-04-24T04:31:30;9.30;99.90
57088;DHT22;42965;52.846;6.614;2023-04-24T04:33:59;9.30;99.90
57088;DHT22;42965;52.846;6.614;2023-04-24T04:36:28;9.30;99.90
57088;DHT22;42965;52.846;6.614;2023-04-24T04:39:02;9.30;99.90
57088;DHT22;42965;52.846;6.614;2023-04-24T04:41:53;9.30;99.90
57088;DHT22;42965;52.846;6.614;2023-04-24T04:44:21;9.30;99.90
57088;DHT22;42965;52.846;6.614;2023-04-24T04:46:50;9.30;99.90
57088;DHT22;42965;52.846;6.614;2023-04-24T04:49:24;9.30;99.90
57088;DHT22;42965;52.846;6.614;2023-04-24T04:51:51;9.20;99.90
57088;DHT22;42965;52.846;6.614;2023-04-24T04:54:18;9.20;99.90
57088;DHT22;42965;52.846;6.614;2023-04-24T04:56:45;9.30;99.90
57088;DHT22;42965;52.846;6.614;2023-04-24T04:59:13;9.20;99.90
57088;DHT22;42965;52.846;6.614;2023-04-24T05:01:40;9.20;99.90
57088;DHT22;42965;52.846;6.614;2023-04-24T05:04:08;9.20;99.90
57088;DHT22;42965;52.846;6.614;2023-04-24T05:06:34;9.10;99.90
57088;DHT22;42965;52.846;6.614;2023-04-24T05:09:00;9.10;99.90
57088;DHT22;42965;52.846;6.614;2023-04-24T05:11:36;9.10;99.90
57088;DHT22;42965;52.846;6.614;2023-04-24T05:14:03;9.10;99.90
57088;DHT22;42965;52.846;6.614;2023-04-24T05:16:36;9.10;99.90
57088;DHT22;42965;52.846;6.614;2023-04-24T05:19:04;9.10;99.90
57088;DHT22;42965;52.846;6.614;2023-04-24T05:21:35;9.10;99.90
57088;DHT22;42965;52.846;6.614;2023-04-24T05:24:02;9.10;99.90
57088;DHT22;42965;52.846;6.614;2023-04-24T05:27:01;9.10;99.90
57088;DHT22;42965;52.846;6.614;2023-04-24T05:29:34;9.10;99.90
57088;DHT22;42965;52.846;6.614;2023-04-24T05:32:00;9.20;99.90
57088;DHT22;42965;52.846;6.614;2023-04-24T05:34:29;9.20;99.90
57088;DHT22;42965;52.846;6.614;2023-04-24T05:36:56;9.10;99.90
57088;DHT22;42965;52.846;6.614;2023-04-24T05:39:23;9.10;99.90
57088;DHT22;42965;52.846;6.614;2023-04-24T05:41:51;9.20;99.90
57088;DHT22;42965;52.846;6.614;2023-04-24T05:44:17;9.10;99.90
57088;DHT22;42965;52.846;6.614;2023-04-24T05:46:44;9.10;99.90
57088;DHT22;42965;52.846;6.614;2023-04-24T05:49:11;9.20;99.90
57088;DHT22;42965;52.846;6.614;2023-04-24T05:51:37;9.10;99.90
57088;DHT22;42965;52.846;6.614;2023-04-24T05:54:05;9.20;99.90
57088;DHT22;42965;52.846;6.614;2023-04-24T05:56:31;9.20;99.90
57088;DHT22;42965;52.846;6.614;2023-04-24T05:58:59;9.30;99.90
57088;DHT22;42965;52.846;6.614;2023-04-24T06:01:26;9.30;99.90
57088;DHT22;42965;52.846;6.614;2023-04-24T06:04:03;9.40;99.90
57088;DHT22;42965;52.846;6.614;2023-04-24T06:06:30;9.40;99.90
57088;DHT22;42965;52.846;6.614;2023-04-24T06:08:57;9.50;99.90
57088;DHT22;42965;52.846;6.614;2023-04-24T06:11:25;9.50;99.90
57088;DHT22;42965;52.846;6.614;2023-04-24T06:13:52;9.50;99.90
57088;DHT22;42965;52.846;6.614;2023-04-24T06:16:51;9.50;99.90
57088;DHT22;42965;52.846;6.614;2023-04-24T06:19:29;9.50;99.90
57088;DHT22;42965;52.846;6.614;2023-04-24T06:21:55;9.50;99.90
57088;DHT22;42965;52.846;6.614;2023-04-24T06:24:21;9.60;99.90
57088;DHT22;42965;52.846;6.614;2023-04-24T06:26:48;9.60;99.90
57088;DHT22;42965;52.846;6.614;2023-04-24T06:29:14;9.60;99.90
57088;DHT22;42965;52.846;6.614;2023-04-24T06:31:40;9.60;99.90
57088;DHT22;42965;52.846;6.614;2023-04-24T06:34:06;9.60;99.90
57088;DHT22;42965;52.846;6.614;2023-04-24T06:36:32;9.70;99.90
57088;DHT22;42965;52.846;6.614;2023-04-24T06:39:00;9.70;99.90
57088;DHT22;42965;52.846;6.614;2023-04-24T06:41:27;9.70;99.90
57088;DHT22;42965;52.846;6.614;2023-04-24T06:43:54;9.80;99.90
57088;DHT22;42965;52.846;6.614;2023-04-24T06:46:21;9.70;99.90
57088;DHT22;42965;52.846;6.614;2023-04-24T06:48:52;9.80;99.90
57088;DHT22;42965;52.846;6.614;2023-04-24T06:51:25;9.80;99.90
57088;DHT22;42965;52.846;6.614;2023-04-24T06:53:52;9.80;99.90
57088;DHT22;42965;52.846;6.614;2023-04-24T06:56:19;9.80;99.90
57088;DHT22;42965;52.846;6.614;2023-04-24T06:58:46;9.80;99.90
57088;DHT22;42965;52.846;6.614;2023-04-24T07:01:12;9.80;99.90
57088;DHT22;42965;52.846;6.614;2023-04-24T07:03:38;9.90;99.90
57088;DHT22;42965;52.846;6.614;2023-04-24T07:06:05;9.90;99.90
57088;DHT22;42965;52.846;6.614;2023-04-24T07:08:32;10.00;99.90
57088;DHT22;42965;52.846;6.614;2023-04-24T07:10:59;9.90;99.90
57088;DHT22;42965;52.846;6.614;2023-04-24T07:13:27;9.90;99.90
57088;DHT22;42965;52.846;6.614;2023-04-24T07:15:54;9.90;99.90
57088;DHT22;42965;52.846;6.614;2023-04-24T07:18:22;9.90;99.90
57088;DHT22;42965;52.846;6.614;2023-04-24T07:20:48;10.00;99.90
57088;DHT22;42965;52.846;6.614;2023-04-24T07:23:18;9.90;99.90
57088;DHT22;42965;52.846;6.614;2023-04-24T07:25:44;9.90;99.90
57088;DHT22;42965;52.846;6.614;2023-04-24T07:28:11;9.90;99.90
57088;DHT22;42965;52.846;6.614;2023-04-24T07:30:37;9.90;99.90
57088;DHT22;42965;52.846;6.614;2023-04-24T07:33:03;9.80;99.90
57088;DHT22;42965;52.846;6.614;2023-04-24T07:35:29;9.90;99.90
57088;DHT22;42965;52.846;6.614;2023-04-24T07:37:56;9.90;99.90
57088;DHT22;42965;52.846;6.614;2023-04-24T07:40:22;9.90;99.90
57088;DHT22;42965;52.846;6.614;2023-04-24T07:42:49;9.90;99.90
57088;DHT22;42965;52.846;6.614;2023-04-24T07:45:15;10.00;99.90
57088;DHT22;42965;52.846;6.614;2023-04-24T07:47:42;10.00;99.90
57088;DHT22;42965;52.846;6.614;2023-04-24T07:50:10;10.00;99.90
57088;DHT22;42965;52.846;6.614;2023-04-24T07:52:36;9.90;99.90
57088;DHT22;42965;52.846;6.614;2023-04-24T07:55:03;9.90;99.90
57088;DHT22;42965;52.846;6.614;2023-04-24T07:57:31;10.00;99.90
57088;DHT22;42965;52.846;6.614;2023-04-24T07:59:57;9.90;99.90
57088;DHT22;42965;52.846;6.614;2023-04-24T08:02:24;9.90;99.90
57088;DHT22;42965;52.846;6.614;2023-04-24T08:04:53;9.70;99.90
57088;DHT22;42965;52.846;6.614;2023-04-24T08:07:23;9.70;99.90
57088;DHT22;42965;52.846;6.614;2023-04-24T08:09:49;9.60;99.90
57088;DHT22;42965;52.846;6.614;2023-04-24T08:12:15;9.70;99.90
57088;DHT22;42965;52.846;6.614;2023-04-24T08:14:42;9.60;99.90
57088;DHT22;42965;52.846;6.614;2023-04-24T08:17:09;9.60;99.90
57088;DHT22;42965;52.846;6.614;2023-04-24T08:19:35;9.60;99.90
57088;DHT22;42965;52.846;6.614;2023-04-24T08:22:01;9.60;99.90
57088;DHT22;42965;52.846;6.614;2023-04-24T08:24:29;9.60;99.90
57088;DHT22;42965;52.846;6.614;2023-04-24T08:26:56;9.60;99.90
57088;DHT22;42965;52.846;6.614;2023-04-24T08:29:23;9.60;99.90
57088;DHT22;42965;52.846;6.614;2023-04-24T08:31:50;9.60;99.90
57088;DHT22;42965;52.846;6.614;2023-04-24T08:34:17;9.60;99.90
57088;DHT22;42965;52.846;6.614;2023-04-24T08:36:43;9.60;99.90
57088;DHT22;42965;52.846;6.614;2023-04-24T08:39:11;9.60;99.90
57088;DHT22;42965;52.846;6.614;2023-04-24T08:41:37;9.60;99.90
57088;DHT22;42965;52.846;6.614;2023-04-24T08:44:04;9.60;99.90
57088;DHT22;42965;52.846;6.614;2023-04-24T08:46:31;9.60;99.90
57088;DHT22;42965;52.846;6.614;2023-04-24T08:48:57;9.60;99.90
57088;DHT22;42965;52.846;6.614;2023-04-24T08:51:26;9.40;99.90
57088;DHT22;42965;52.846;6.614;2023-04-24T08:53:54;9.50;99.90
57088;DHT22;42965;52.846;6.614;2023-04-24T08:56:22;9.40;99.90
57088;DHT22;42965;52.846;6.614;2023-04-24T08:58:53;9.30;99.90
57088;DHT22;42965;52.846;6.614;2023-04-24T09:01:20;9.30;99.90
57088;DHT22;42965;52.846;6.614;2023-04-24T09:03:49;9.30;99.90
57088;DHT22;42965;52.846;6.614;2023-04-24T09:06:17;9.20;99.90
57088;DHT22;42965;52.846;6.614;2023-04-24T09:08:45;9.20;99.90
57088;DHT22;42965;52.846;6.614;2023-04-24T09:11:13;9.10;99.90
57088;DHT22;42965;52.846;6.614;2023-04-24T09:13:40;9.00;99.90
57088;DHT22;42965;52.846;6.614;2023-04-24T09:16:07;9.10;99.90
57088;DHT22;42965;52.846;6.614;2023-04-24T09:18:34;9.00;99.90
57088;DHT22;42965;52.846;6.614;2023-04-24T09:21:03;9.00;99.90
57088;DHT22;42965;52.846;6.614;2023-04-24T09:23:31;9.00;99.90
57088;DHT22;42965;52.846;6.614;2023-04-24T09:25:59;9.10;99.90
57088;DHT22;42965;52.846;6.614;2023-04-24T09:28:40;9.10;99.90
57088;DHT22;42965;52.846;6.614;2023-04-24T09:31:13;9.10;99.90
57088;DHT22;42965;52.846;6.614;2023-04-24T09:33:40;9.10;99.90
57088;DHT22;42965;52.846;6.614;2023-04-24T09:36:19;9.20;99.90
57088;DHT22;42965;52.846;6.614;2023-04-24T09:38:45;9.10;99.90
57088;DHT22;42965;52.846;6.614;2023-04-24T09:41:13;9.20;99.90
57088;DHT22;42965;52.846;6.614;2023-04-24T09:43:40;9.20;99.90
57088;DHT22;42965;52.846;6.614;2023-04-24T09:46:07;9.30;99.90
57088;DHT22;42965;52.846;6.614;2023-04-24T09:48:36;9.30;99.90
57088;DHT22;42965;52.846;6.614;2023-04-24T09:51:04;9.30;99.90
57088;DHT22;42965;52.846;6.614;2023-04-24T09:53:33;9.20;99.90
57088;DHT22;42965;52.846;6.614;2023-04-24T09:56:10;9.20;99.90
57088;DHT22;42965;52.846;6.614;2023-04-24T09:58:36;9.10;99.90
57088;DHT22;42965;52.846;6.614;2023-04-24T10:01:03;9.10;99.90
57088;DHT22;42965;52.846;6.614;2023-04-24T10:03:30;9.20;99.90
57088;DHT22;42965;52.846;6.614;2023-04-24T10:06:01;9.10;99.90
57088;DHT22;42965;52.846;6.614;2023-04-24T10:08:33;9.20;99.90
57088;DHT22;42965;52.846;6.614;2023-04-24T10:11:00;9.20;99.90
57088;DHT22;42965;52.846;6.614;2023-04-24T10:13:27;9.40;99.90
57088;DHT22;42965;52.846;6.614;2023-04-24T10:15:54;9.40;99.90
57088;DHT22;42965;52.846;6.614;2023-04-24T10:18:22;9.40;99.90
57088;DHT22;42965;52.846;6.614;2023-04-24T10:20:53;9.60;99.90
57088;DHT22;42965;52.846;6.614;2023-04-24T10:23:21;9.60;99.90
57088;DHT22;42965;52.846;6.614;2023-04-24T10:25:48;9.60;99.90
57088;DHT22;42965;52.846;6.614;2023-04-24T10:28:15;9.60;99.90
57088;DHT22;42965;52.846;6.614;2023-04-24T10:30:43;9.70;99.90
57088;DHT22;42965;52.846;6.614;2023-04-24T10:33:09;9.60;99.90
57088;DHT22;42965;52.846;6.614;2023-04-24T10:35:39;9.50;99.90
57088;DHT22;42965;52.846;6.614;2023-04-24T10:38:12;9.50;99.90
57088;DHT22;42965;52.846;6.614;2023-04-24T10:40:39;9.50;99.90
57088;DHT22;42965;52.846;6.614;2023-04-24T10:43:07;9.40;99.90
57088;DHT22;42965;52.846;6.614;2023-04-24T10:45:38;9.40;99.90
57088;DHT22;42965;52.846;6.614;2023-04-24T10:48:06;9.40;99.90
57088;DHT22;42965;52.846;6.614;2023-04-24T10:50:45;9.30;99.90
57088;DHT22;42965;52.846;6.614;2023-04-24T10:53:25;9.20;99.90
57088;DHT22;42965;52.846;6.614;2023-04-24T10:56:03;9.10;99.90
57088;DHT22;42965;52.846;6.614;2023-04-24T10:58:56;9.10;99.90
57088;DHT22;42965;52.846;6.614;2023-04-24T11:01:26;9.10;99.90
57088;DHT22;42965;52.846;6.614;2023-04-24T11:03:59;9.10;99.90
57088;DHT22;42965;52.846;6.614;2023-04-24T11:06:43;9.10;99.90
57088;DHT22;42965;52.846;6.614;2023-04-24T11:09:11;9.20;99.90
57088;DHT22;42965;52.846;6.614;2023-04-24T11:11:46;9.40;99.90
57088;DHT22;42965;52.846;6.614;2023-04-24T11:14:16;9.60;99.90
57088;DHT22;42965;52.846;6.614;2023-04-24T11:16:52;9.60;99.90
57088;DHT22;42965;52.846;6.614;2023-04-24T11:19:21;9.60;99.90
57088;DHT22;42965;52.846;6.614;2023-04-24T11:21:59;9.40;99.90
57088;DHT22;42965;52.846;6.614;2023-04-24T11:27:16;9.30;99.90
57088;DHT22;42965;52.846;6.614;2023-04-24T11:30:10;9.20;99.90
57088;DHT22;42965;52.846;6.614;2023-04-24T11:32:43;9.20;99.90
57088;DHT22;42965;52.846;6.614;2023-04-24T11:35:20;9.20;99.90
57088;DHT22;42965;52.846;6.614;2023-04-24T11:37:48;9.30;99.90
57088;DHT22;42965;52.846;6.614;2023-04-24T11:40:16;9.30;99.90
57088;DHT22;42965;52.846;6.614;2023-04-24T11:42:44;9.40;99.90
57088;DHT22;42965;52.846;6.614;2023-04-24T11:45:13;9.50;99.90
57088;DHT22;42965;52.846;6.614;2023-04-24T11:47:40;9.60;99.90
57088;DHT22;42965;52.846;6.614;2023-04-24T11:50:11;9.60;99.90
57088;DHT22;42965;52.846;6.614;2023-04-24T11:52:40;9.80;99.90
57088;DHT22;42965;52.846;6.614;2023-04-24T11:55:14;9.90;99.90
57088;DHT22;42965;52.846;6.614;2023-04-24T11:57:55;9.80;99.90
57088;DHT22;42965;52.846;6.614;2023-04-24T12:00:30;9.80;99.90
57088;DHT22;42965;52.846;6.614;2023-04-24T12:03:08;9.70;99.90
57088;DHT22;42965;52.846;6.614;2023-04-24T12:05:35;9.60;99.90
57088;DHT22;42965;52.846;6.614;2023-04-24T12:08:01;9.50;99.90
57088;DHT22;42965;52.846;6.614;2023-04-24T12:10:29;9.50;99.90
57088;DHT22;42965;52.846;6.614;2023-04-24T12:12:57;9.40;99.90
57088;DHT22;42965;52.846;6.614;2023-04-24T12:15:23;9.40;99.90
57088;DHT22;42965;52.846;6.614;2023-04-24T12:17:54;9.40;99.90
57088;DHT22;42965;52.846;6.614;2023-04-24T12:20:26;9.50;99.90
57088;DHT22;42965;52.846;6.614;2023-04-24T12:22:59;9.60;99.90
57088;DHT22;42965;52.846;6.614;2023-04-24T12:25:33;9.70;99.90
57088;DHT22;42965;52.846;6.614;2023-04-24T12:30:42;9.90;99.90
57088;DHT22;42965;52.846;6.614;2023-04-24T12:33:10;9.90;99.90
57088;DHT22;42965;52.846;6.614;2023-04-24T12:35:37;9.90;99.90
57088;DHT22;42965;52.846;6.614;2023-04-24T12:38:11;9.90;99.90
57088;DHT22;42965;52.846;6.614;2023-04-24T12:40:39;10.00;99.90
57088;DHT22;42965;52.846;6.614;2023-04-24T12:43:16;10.00;99.90
57088;DHT22;42965;52.846;6.614;2023-04-24T12:45:42;10.00;99.90
57088;DHT22;42965;52.846;6.614;2023-04-24T12:48:09;10.00;99.90
57088;DHT22;42965;52.846;6.614;2023-04-24T12:50:35;10.10;99.90
57088;DHT22;42965;52.846;6.614;2023-04-24T12:53:01;10.40;99.90
57088;DHT22;42965;52.846;6.614;2023-04-24T12:55:28;10.50;99.90
57088;DHT22;42965;52.846;6.614;2023-04-24T12:57:54;10.70;99.90
57088;DHT22;42965;52.846;6.614;2023-04-24T13:00:22;10.80;99.90
57088;DHT22;42965;52.846;6.614;2023-04-24T13:02:48;10.80;99.90
57088;DHT22;42965;52.846;6.614;2023-04-24T13:05:14;10.80;99.90
57088;DHT22;42965;52.846;6.614;2023-04-24T13:07:41;10.70;99.90
57088;DHT22;42965;52.846;6.614;2023-04-24T13:10:08;10.30;99.90
57088;DHT22;42965;52.846;6.614;2023-04-24T13:12:34;10.00;99.90
57088;DHT22;42965;52.846;6.614;2023-04-24T13:15:01;9.80;99.90
57088;DHT22;42965;52.846;6.614;2023-04-24T13:17:27;9.80;99.90
57088;DHT22;42965;52.846;6.614;2023-04-24T13:19:54;9.60;99.90
57088;DHT22;42965;52.846;6.614;2023-04-24T13:22:21;9.40;99.90
57088;DHT22;42965;52.846;6.614;2023-04-24T13:24:48;9.40;99.90
57088;DHT22;42965;52.846;6.614;2023-04-24T13:27:16;9.60;99.90
57088;DHT22;42965;52.846;6.614;2023-04-24T13:29:42;9.80;99.90
57088;DHT22;42965;52.846;6.614;2023-04-24T13:32:09;9.80;99.90
57088;DHT22;42965;52.846;6.614;2023-04-24T13:34:35;9.80;99.90
57088;DHT22;42965;52.846;6.614;2023-04-24T13:37:03;9.90;99.90
57088;DHT22;42965;52.846;6.614;2023-04-24T13:39:29;10.00;99.90
57088;DHT22;42965;52.846;6.614;2023-04-24T13:41:57;9.90;99.90
57088;DHT22;42965;52.846;6.614;2023-04-24T13:44:23;9.80;99.90
57088;DHT22;42965;52.846;6.614;2023-04-24T13:46:52;9.70;99.90
57088;DHT22;42965;52.846;6.614;2023-04-24T13:49:21;9.70;99.90
57088;DHT22;42965;52.846;6.614;2023-04-24T13:51:47;9.50;99.90
57088;DHT22;42965;52.846;6.614;2023-04-24T13:54:14;9.50;99.90
57088;DHT22;42965;52.846;6.614;2023-04-24T13:56:40;9.30;99.90
57088;DHT22;42965;52.846;6.614;2023-04-24T13:59:07;9.20;99.90
57088;DHT22;42965;52.846;6.614;2023-04-24T14:01:33;9.10;99.90
57088;DHT22;42965;52.846;6.614;2023-04-24T14:03:59;9.00;99.90
57088;DHT22;42965;52.846;6.614;2023-04-24T14:06:25;8.90;99.90
57088;DHT22;42965;52.846;6.614;2023-04-24T14:08:52;8.90;99.90
57088;DHT22;42965;52.846;6.614;2023-04-24T14:11:19;8.90;99.90
57088;DHT22;42965;52.846;6.614;2023-04-24T14:13:46;9.00;99.90
57088;DHT22;42965;52.846;6.614;2023-04-24T14:16:12;9.00;99.90
57088;DHT22;42965;52.846;6.614;2023-04-24T14:18:40;9.00;99.90
57088;DHT22;42965;52.846;6.614;2023-04-24T14:21:06;9.10;99.90
57088;DHT22;42965;52.846;6.614;2023-04-24T14:23:32;9.20;99.90
57088;DHT22;42965;52.846;6.614;2023-04-24T14:26:00;9.20;99.90
57088;DHT22;42965;52.846;6.614;2023-04-24T14:28:26;9.20;99.90
57088;DHT22;42965;52.846;6.614;2023-04-24T14:30:52;9.20;99.90
57088;DHT22;42965;52.846;6.614;2023-04-24T14:33:19;9.40;99.90
57088;DHT22;42965;52.846;6.614;2023-04-24T14:35:46;9.40;99.90
57088;DHT22;42965;52.846;6.614;2023-04-24T14:38:12;9.40;99.90
57088;DHT22;42965;52.846;6.614;2023-04-24T14:40:39;9.40;99.90
57088;DHT22;42965;52.846;6.614;2023-04-24T14:43:06;9.50;99.90
57088;DHT22;42965;52.846;6.614;2023-04-24T14:45:32;9.40;99.90
57088;DHT22;42965;52.846;6.614;2023-04-24T14:47:59;9.40;99.90
57088;DHT22;42965;52.846;6.614;2023-04-24T14:50:25;9.40;99.90
57088;DHT22;42965;52.846;6.614;2023-04-24T14:52:56;9.40;99.90
57088;DHT22;42965;52.846;6.614;2023-04-24T14:55:28;9.40;99.90
57088;DHT22;42965;52.846;6.614;2023-04-24T14:57:54;9.40;99.90
57088;DHT22;42965;52.846;6.614;2023-04-24T15:00:22;9.40;99.90
57088;DHT22;42965;52.846;6.614;2023-04-24T15:02:49;9.50;99.90
57088;DHT22;42965;52.846;6.614;2023-04-24T15:05:16;9.60;99.90
57088;DHT22;42965;52.846;6.614;2023-04-24T15:07:42;9.80;99.90
57088;DHT22;42965;52.846;6.614;2023-04-24T15:10:09;9.90;99.90
57088;DHT22;42965;52.846;6.614;2023-04-24T15:12:35;9.90;99.90
57088;DHT22;42965;52.846;6.614;2023-04-24T15:15:02;10.00;99.90
57088;DHT22;42965;52.846;6.614;2023-04-24T15:17:29;10.00;99.90
57088;DHT22;42965;52.846;6.614;2023-04-24T15:19:56;9.90;99.90
57088;DHT22;42965;52.846;6.614;2023-04-24T15:22:22;9.90;99.90
57088;DHT22;42965;52.846;6.614;2023-04-24T15:24:49;9.90;99.90
57088;DHT22;42965;52.846;6.614;2023-04-24T15:27:16;10.00;99.90
57088;DHT22;42965;52.846;6.614;2023-04-24T15:29:42;10.20;99.90
57088;DHT22;42965;52.846;6.614;2023-04-24T15:32:08;10.40;99.90
57088;DHT22;42965;52.846;6.614;2023-04-24T15:34:35;10.50;99.90
57088;DHT22;42965;52.846;6.614;2023-04-24T15:37:01;10.40;99.90
57088;DHT22;42965;52.846;6.614;2023-04-24T15:39:28;10.00;99.90
57088;DHT22;42965;52.846;6.614;2023-04-24T15:41:54;10.00;99.90
57088;DHT22;42965;52.846;6.614;2023-04-24T15:44:21;9.60;99.90
57088;DHT22;42965;52.846;6.614;2023-04-24T15:46:48;9.30;99.90
57088;DHT22;42965;52.846;6.614;2023-04-24T15:49:14;9.10;99.90
57088;DHT22;42965;52.846;6.614;2023-04-24T15:51:41;9.20;99.90
57088;DHT22;42965;52.846;6.614;2023-04-24T15:54:07;9.30;99.90
57088;DHT22;42965;52.846;6.614;2023-04-24T15:56:33;9.40;99.90